createdAt,value
2019-02-26T00:00:56.882Z,6.10
2019-02-26T00:03:26.419Z,6.00
2019-02-26T00:05:56.805Z,5.90
2019-02-26T00:08:26.820Z,5.90
2019-02-26T00:10:58.530Z,5.90
2019-02-26T00:13:25.081Z,5.80
2019-02-26T00:15:53.876Z,5.80
2019-02-26T00:18:23.464Z,5.90
2019-02-26T00:20:51.354Z,5.90
2019-02-26T00:23:21.497Z,5.90
2019-02-26T00:25:48.932Z,6.00
2019-02-26T00:28:19.366Z,6.00
2019-02-26T00:30:46.782Z,6.00
2019-02-26T00:33:14.365Z,6.00
2019-02-26T00:35:43.787Z,6.10
2019-02-26T00:38:13.260Z,6.10
2019-02-26T00:40:43.135Z,6.20
2019-02-26T00:43:10.754Z,6.30
2019-02-26T00:45:39.070Z,6.40
2019-02-26T00:48:06.844Z,6.40
2019-02-26T00:50:35.578Z,6.50
2019-02-26T00:53:04.160Z,6.60
2019-02-26T00:55:34.896Z,6.60
2019-02-26T00:58:03.859Z,6.70
2019-02-26T01:00:33.290Z,6.70
2019-02-26T01:03:03.975Z,6.70
2019-02-26T01:05:31.732Z,6.70
2019-02-26T01:07:59.267Z,6.70
2019-02-26T01:10:27.045Z,6.70
2019-02-26T01:12:56.389Z,6.80
2019-02-26T01:15:23.873Z,6.80
2019-02-26T01:17:51.563Z,6.80
2019-02-26T01:20:22.662Z,6.80
2019-02-26T01:22:49.654Z,6.90
2019-02-26T01:25:18.491Z,6.90
2019-02-26T01:27:48.361Z,6.90
2019-02-26T01:30:21.101Z,6.90
2019-02-26T01:32:45.552Z,6.90
2019-02-26T01:35:13.310Z,6.90
2019-02-26T01:37:41.149Z,7.00
2019-02-26T01:40:13.189Z,7.10
2019-02-26T01:42:39.610Z,7.10
2019-02-26T01:45:10.408Z,7.20
2019-02-26T01:47:37.892Z,7.20
2019-02-26T01:50:09.374Z,7.20
2019-02-26T01:52:36.939Z,7.30
2019-02-26T01:55:06.853Z,7.30
2019-02-26T01:57:35.303Z,7.30
2019-02-26T02:00:09.838Z,7.30
2019-02-26T02:02:37.727Z,7.30
2019-02-26T02:05:07.097Z,7.30
2019-02-26T02:07:34.687Z,7.30
2019-02-26T02:10:03.253Z,7.30
2019-02-26T02:12:32.405Z,7.20
2019-02-26T02:15:00.315Z,7.30
2019-02-26T02:17:28.844Z,7.20
2019-02-26T02:19:57.543Z,7.10
2019-02-26T02:22:24.900Z,7.00
2019-02-26T02:24:53.977Z,6.90
2019-02-26T02:27:24.419Z,6.90
2019-02-26T02:29:52.950Z,6.90
2019-02-26T02:32:21.499Z,6.90
2019-02-26T02:34:50.158Z,6.90
2019-02-26T02:37:22.793Z,6.90
2019-02-26T02:39:47.066Z,6.90
2019-02-26T02:42:16.953Z,6.90
2019-02-26T02:44:44.842Z,6.90
2019-02-26T02:47:12.970Z,6.90
2019-02-26T02:49:42.452Z,7.00
2019-02-26T02:52:11.832Z,7.00
2019-02-26T02:54:41.098Z,7.00
2019-02-26T02:57:10.011Z,7.00
2019-02-26T02:59:41.730Z,7.00
2019-02-26T03:02:09.252Z,7.00
2019-02-26T03:04:36.622Z,7.00
2019-02-26T03:07:04.171Z,7.00
2019-02-26T03:09:35.397Z,7.00
2019-02-26T03:12:01.839Z,7.00
2019-02-26T03:14:32.457Z,7.00
2019-02-26T03:16:58.794Z,7.00
2019-02-26T03:19:26.362Z,7.00
2019-02-26T03:21:55.007Z,7.00
2019-02-26T03:24:25.369Z,6.90
2019-02-26T03:26:51.753Z,7.00
2019-02-26T03:29:19.228Z,7.00
2019-02-26T03:31:54.805Z,7.00
2019-02-26T03:34:21.815Z,6.90
2019-02-26T03:36:45.948Z,6.90
2019-02-26T03:39:13.497Z,6.90
2019-02-26T03:41:43.085Z,6.90
2019-02-26T03:46:30.845Z,6.90
2019-02-26T03:49:02.362Z,6.90
2019-02-26T03:51:27.771Z,6.90
2019-02-26T03:53:55.334Z,6.90
2019-02-26T03:56:23.017Z,6.90
2019-02-26T03:58:54.427Z,6.80
2019-02-26T04:01:21.566Z,6.80
2019-02-26T04:03:49.238Z,6.90
2019-02-26T04:06:16.592Z,6.90
2019-02-26T04:08:46.202Z,6.90
2019-02-26T04:11:13.802Z,6.90
2019-02-26T04:13:45.802Z,6.90
2019-02-26T04:16:14.036Z,6.90
2019-02-26T04:18:41.445Z,6.90
2019-02-26T04:21:11.757Z,6.90
2019-02-26T04:27:09.839Z,6.90
2019-02-26T04:29:51.280Z,6.90
2019-02-26T04:33:14.239Z,6.90
2019-02-26T04:36:39.677Z,6.90
2019-02-26T04:40:04.856Z,6.90
2019-02-26T04:43:54.813Z,6.90
2019-02-26T04:46:51.475Z,6.90
2019-02-26T04:49:19.707Z,7.00
2019-02-26T04:51:50.354Z,6.90
2019-02-26T04:54:21.561Z,7.00
2019-02-26T04:56:48.119Z,7.00
2019-02-26T04:59:17.625Z,6.90
2019-02-26T05:01:47.212Z,6.80
2019-02-26T05:04:16.455Z,7.00
2019-02-26T05:06:44.518Z,6.90
2019-02-26T05:09:11.997Z,7.00
2019-02-26T05:11:40.770Z,7.00
2019-02-26T05:14:11.712Z,6.90
2019-02-26T05:16:40.343Z,7.00
2019-02-26T05:19:10.405Z,7.00
2019-02-26T05:21:37.975Z,6.90
2019-02-26T05:24:05.475Z,7.00
2019-02-26T05:26:34.192Z,6.90
2019-02-26T05:29:05.868Z,6.90
2019-02-26T05:31:35.847Z,7.00
2019-02-26T05:34:02.630Z,6.90
2019-02-26T05:36:33.187Z,6.90
2019-02-26T05:39:02.174Z,7.00
2019-02-26T05:41:31.567Z,7.00
2019-02-26T05:44:01.886Z,7.00
2019-02-26T05:46:29.515Z,7.10
2019-02-26T05:48:57.067Z,7.10
2019-02-26T05:51:26.778Z,7.10
2019-02-26T05:53:53.711Z,7.00
2019-02-26T05:56:22.936Z,6.90
2019-02-26T05:58:50.651Z,7.00
2019-02-26T06:01:19.344Z,6.90
2019-02-26T06:03:49.714Z,7.00
2019-02-26T06:06:17.087Z,7.00
2019-02-26T06:08:46.954Z,7.00
2019-02-26T06:11:16.931Z,7.10
2019-02-26T06:13:44.118Z,7.10
2019-02-26T06:16:11.451Z,7.20
2019-02-26T06:18:41.219Z,7.20
2019-02-26T06:21:08.111Z,7.20
2019-02-26T06:23:36.718Z,7.30
2019-02-26T06:26:13.256Z,7.30
2019-02-26T06:28:38.450Z,7.30
2019-02-26T06:31:06.916Z,7.40
2019-02-26T06:33:36.257Z,7.40
2019-02-26T06:36:06.136Z,7.40
2019-02-26T06:38:35.044Z,7.40
2019-02-26T06:41:02.645Z,7.40
2019-02-26T06:43:30.947Z,7.40
2019-02-26T06:46:00.169Z,7.50
2019-02-26T06:48:29.794Z,7.40
2019-02-26T06:50:59.853Z,7.50
2019-02-26T06:53:27.564Z,7.50
2019-02-26T06:55:55.012Z,7.60
2019-02-26T06:58:27.052Z,7.60
2019-02-26T07:00:56.607Z,7.60
2019-02-26T07:03:24.776Z,7.70
2019-02-26T07:05:52.381Z,7.70
2019-02-26T07:08:21.923Z,7.70
2019-02-26T07:10:49.065Z,7.80
2019-02-26T07:13:17.994Z,7.80
2019-02-26T07:15:45.948Z,7.80
2019-02-26T07:18:19.660Z,7.90
2019-02-26T07:20:49.791Z,7.90
2019-02-26T07:23:16.501Z,8.00
2019-02-26T07:25:45.426Z,8.10
2019-02-26T07:28:13.006Z,8.10
2019-02-26T07:30:42.310Z,8.10
2019-02-26T07:33:12.166Z,8.20
2019-02-26T07:35:39.781Z,8.20
2019-02-26T07:38:07.305Z,8.20
2019-02-26T07:40:35.900Z,8.30
2019-02-26T07:43:06.959Z,8.30
2019-02-26T07:45:33.470Z,8.40
2019-02-26T07:48:01.069Z,8.40
2019-02-26T07:50:31.275Z,8.50
2019-02-26T07:52:59.447Z,8.60
2019-02-26T07:55:27.693Z,8.70
2019-02-26T07:57:55.332Z,8.90
2019-02-26T08:00:23.105Z,9.10
2019-02-26T08:02:52.045Z,9.40
2019-02-26T08:05:21.305Z,9.30
2019-02-26T08:07:51.960Z,9.40
2019-02-26T08:10:20.473Z,9.80
2019-02-26T08:12:47.905Z,10.30
2019-02-26T08:15:15.879Z,10.70
2019-02-26T08:17:45.648Z,11.20
2019-02-26T08:20:14.864Z,11.40
2019-02-26T08:22:43.438Z,11.50
2019-02-26T08:25:15.602Z,11.70
2019-02-26T08:27:43.766Z,11.90
2019-02-26T08:30:18.637Z,12.30
2019-02-26T08:32:48.337Z,12.40
2019-02-26T08:35:17.869Z,12.30
2019-02-26T08:37:42.954Z,12.40
2019-02-26T08:40:13.423Z,12.10
2019-02-26T08:42:40.921Z,12.00
2019-02-26T08:45:15.687Z,11.90
2019-02-26T08:47:44.262Z,12.30
2019-02-26T08:50:14.653Z,12.70
2019-02-26T08:52:44.228Z,12.90
2019-02-26T08:55:13.010Z,12.90
2019-02-26T08:57:41.083Z,12.90
2019-02-26T09:00:12.897Z,12.90
2019-02-26T09:02:41.209Z,12.90
2019-02-26T09:05:11.886Z,13.10
2019-02-26T09:07:42.713Z,13.40
2019-02-26T09:10:12.471Z,13.30
2019-02-26T09:12:41.923Z,13.30
2019-02-26T09:15:12.367Z,13.20
2019-02-26T09:17:41.994Z,13.20
2019-02-26T09:20:14.548Z,13.20
2019-02-26T09:22:45.735Z,13.30
2019-02-26T09:25:12.768Z,13.20
2019-02-26T09:27:42.936Z,13.30
2019-02-26T09:30:14.005Z,13.60
2019-02-26T09:32:44.751Z,14.40
2019-02-26T09:35:16.262Z,14.40
2019-02-26T09:37:45.349Z,14.30
2019-02-26T09:40:14.520Z,14.30
2019-02-26T09:42:43.751Z,14.80
2019-02-26T09:45:15.885Z,15.40
2019-02-26T09:47:44.931Z,16.10
2019-02-26T09:50:15.364Z,16.60
2019-02-26T09:52:43.145Z,16.60
2019-02-26T09:55:13.150Z,16.80
2019-02-26T09:57:40.780Z,16.70
2019-02-26T10:00:14.506Z,16.60
2019-02-26T10:02:44.710Z,16.50
2019-02-26T10:05:13.965Z,16.40
2019-02-26T10:07:42.710Z,17.50
2019-02-26T10:10:14.176Z,18.20
2019-02-26T10:12:41.854Z,18.70
2019-02-26T10:15:10.521Z,18.70
2019-02-26T10:17:40.158Z,18.10
2019-02-26T10:20:11.161Z,17.40
2019-02-26T10:22:40.476Z,17.00
2019-02-26T10:25:08.764Z,16.50
2019-02-26T10:27:38.807Z,16.20
2019-02-26T10:30:13.319Z,15.70
2019-02-26T10:32:39.804Z,15.30
2019-02-26T10:35:09.699Z,14.90
2019-02-26T10:37:50.446Z,14.40
2019-02-26T10:40:19.536Z,14.40
2019-02-26T10:42:47.355Z,14.90
2019-02-26T10:45:16.475Z,15.30
2019-02-26T10:47:43.939Z,15.00
2019-02-26T10:50:16.313Z,14.60
2019-02-26T10:52:44.599Z,14.50
2019-02-26T10:55:15.058Z,14.70
2019-02-26T10:57:41.681Z,14.40
2019-02-26T11:00:16.681Z,14.10
2019-02-26T11:02:48.330Z,13.80
2019-02-26T11:05:20.767Z,13.40
2019-02-26T11:07:48.456Z,13.20
2019-02-26T11:10:18.123Z,13.00
2019-02-26T11:12:45.826Z,13.10
2019-02-26T11:15:15.291Z,13.10
2019-02-26T11:17:43.804Z,13.20
2019-02-26T11:20:12.482Z,13.50
2019-02-26T11:22:42.241Z,14.00
2019-02-26T11:25:09.504Z,15.10
2019-02-26T11:27:38.026Z,16.70
2019-02-26T11:30:09.920Z,17.80
2019-02-26T11:32:39.841Z,18.20
2019-02-26T11:35:09.440Z,18.30
2019-02-26T11:37:37.007Z,19.10
2019-02-26T11:40:05.965Z,20.00
2019-02-26T11:42:33.516Z,21.30
2019-02-26T11:45:06.598Z,22.40
2019-02-26T11:47:36.699Z,22.40
2019-02-26T11:50:06.885Z,21.90
2019-02-26T11:52:36.498Z,22.00
2019-02-26T11:55:06.093Z,22.20
2019-02-26T11:57:37.045Z,21.30
2019-02-26T12:00:04.550Z,20.20
2019-02-26T12:02:37.015Z,19.30
2019-02-26T12:05:05.643Z,19.20
2019-02-26T12:07:34.836Z,21.60
2019-02-26T12:10:09.620Z,23.80
2019-02-26T12:12:36.161Z,24.30
2019-02-26T12:15:09.421Z,24.60
2019-02-26T12:17:38.269Z,26.10
2019-02-26T12:20:11.919Z,27.90
2019-02-26T12:22:41.200Z,29.00
2019-02-26T12:25:11.199Z,29.40
2019-02-26T12:27:40.808Z,30.30
2019-02-26T12:30:15.816Z,31.60
2019-02-26T12:32:47.202Z,32.00
2019-02-26T12:35:17.204Z,32.40
2019-02-26T12:37:43.277Z,32.50
2019-02-26T12:40:13.129Z,32.40
2019-02-26T12:42:41.035Z,31.90
2019-02-26T12:45:13.662Z,32.40
2019-02-26T12:47:41.145Z,33.10
2019-02-26T12:50:13.899Z,33.60
2019-02-26T12:52:42.346Z,32.10
2019-02-26T12:55:11.381Z,29.90
2019-02-26T12:57:39.183Z,28.20
2019-02-26T13:00:13.268Z,26.40
2019-02-26T13:02:43.379Z,24.60
2019-02-26T13:05:13.401Z,24.50
2019-02-26T13:07:41.661Z,24.40
2019-02-26T13:10:12.883Z,25.10
2019-02-26T13:12:40.385Z,24.90
2019-02-26T13:15:10.861Z,23.60
2019-02-26T13:17:38.210Z,22.70
2019-02-26T13:20:11.144Z,21.70
2019-02-26T13:22:45.613Z,21.60
2019-02-26T13:25:17.054Z,21.80
2019-02-26T13:27:43.676Z,22.10
2019-02-26T13:30:12.942Z,22.20
2019-02-26T13:32:55.311Z,23.20
2019-02-26T13:35:11.519Z,24.80
2019-02-26T13:37:41.922Z,25.60
2019-02-26T13:40:12.539Z,25.70
2019-02-26T13:42:40.320Z,26.00
2019-02-26T13:45:10.584Z,26.50
2019-02-26T13:47:39.206Z,25.90
2019-02-26T13:50:10.323Z,24.70
2019-02-26T13:52:38.687Z,24.10
2019-02-26T13:55:07.542Z,23.80
2019-02-26T13:57:34.904Z,23.90
2019-02-26T14:00:04.658Z,23.80
2019-02-26T14:02:32.885Z,23.50
2019-02-26T14:05:00.408Z,23.90
2019-02-26T14:07:27.857Z,25.10
2019-02-26T14:09:55.802Z,26.40
2019-02-26T14:12:23.462Z,27.30
2019-02-26T14:14:51.290Z,27.40
2019-02-26T14:17:19.785Z,27.50
2019-02-26T14:19:47.121Z,27.80
2019-02-26T14:22:15.357Z,28.10
2019-02-26T14:24:42.747Z,28.10
2019-02-26T14:27:12.353Z,27.70
2019-02-26T14:29:39.758Z,27.40
2019-02-26T14:32:07.580Z,26.40
2019-02-26T14:34:35.248Z,25.80
2019-02-26T14:37:02.944Z,25.50
2019-02-26T14:39:31.737Z,24.80
2019-02-26T14:42:00.141Z,23.50
2019-02-26T14:44:27.767Z,22.10
2019-02-26T14:46:55.658Z,20.50
2019-02-26T14:49:23.297Z,19.50
2019-02-26T14:51:51.986Z,18.70
2019-02-26T14:54:19.971Z,18.10
2019-02-26T14:56:49.606Z,17.60
2019-02-26T14:59:17.392Z,17.20
2019-02-26T15:01:45.023Z,16.80
2019-02-26T15:04:12.648Z,16.70
2019-02-26T15:06:40.165Z,16.40
2019-02-26T15:09:08.993Z,15.90
2019-02-26T15:11:36.853Z,15.30
2019-02-26T15:14:04.555Z,14.80
2019-02-26T15:16:32.423Z,14.40
2019-02-26T15:19:01.348Z,14.20
2019-02-26T15:21:28.788Z,13.90
2019-02-26T15:23:56.360Z,13.70
2019-02-26T15:26:24.153Z,13.40
2019-02-26T15:28:51.950Z,13.30
2019-02-26T15:31:19.488Z,13.10
2019-02-26T15:33:46.904Z,12.90
2019-02-26T15:36:15.762Z,12.80
2019-02-26T15:38:44.899Z,12.60
2019-02-26T15:41:12.422Z,12.30
2019-02-26T15:43:39.843Z,12.10
2019-02-26T15:46:07.390Z,12.00
2019-02-26T15:48:36.485Z,11.90
2019-02-26T15:54:01.855Z,11.60
2019-02-26T15:56:31.008Z,11.40
2019-02-26T15:59:04.531Z,11.30
2019-02-26T16:01:32.057Z,11.20
2019-02-26T16:04:00.596Z,11.00
2019-02-26T16:06:28.826Z,11.00
2019-02-26T16:08:58.062Z,10.90
2019-02-26T16:11:27.028Z,10.90
2019-02-26T16:13:57.424Z,10.80
2019-02-26T16:16:25.673Z,10.90
2019-02-26T16:18:53.032Z,10.90
2019-02-26T16:24:41.578Z,10.80
2019-02-26T16:27:09.391Z,10.80
2019-02-26T16:29:36.966Z,10.70
2019-02-26T16:32:04.963Z,10.70
2019-02-26T16:34:35.032Z,10.70
2019-02-26T16:37:03.274Z,10.60
2019-02-26T16:39:31.996Z,10.60
2019-02-26T16:42:00.579Z,10.50
2019-02-26T16:44:28.163Z,10.50
2019-02-26T16:46:56.121Z,10.50
2019-02-26T16:49:25.825Z,10.50
2019-02-26T16:51:54.932Z,10.50
2019-02-26T16:54:22.594Z,10.40
2019-02-26T16:56:50.252Z,10.40
2019-02-26T16:59:18.229Z,10.30
2019-02-26T17:01:45.618Z,10.20
2019-02-26T17:04:43.881Z,10.10
2019-02-26T17:07:11.610Z,10.00
2019-02-26T17:09:39.731Z,10.00
2019-02-26T17:12:07.517Z,10.00
2019-02-26T17:14:37.004Z,9.80
2019-02-26T17:17:04.661Z,9.70
2019-02-26T17:19:32.381Z,9.50
2019-02-26T17:22:01.843Z,9.60
2019-02-26T17:24:29.656Z,9.60
2019-02-26T17:26:57.348Z,9.50
2019-02-26T17:29:25.351Z,9.50
2019-02-26T17:31:52.794Z,9.30
2019-02-26T17:34:20.739Z,9.30
2019-02-26T17:36:49.670Z,9.40
2019-02-26T17:39:17.538Z,9.40
2019-02-26T17:41:45.329Z,9.40
2019-02-26T17:44:13.512Z,9.40
2019-02-26T17:46:41.198Z,9.40
2019-02-26T17:49:08.931Z,9.50
2019-02-26T17:51:36.517Z,9.50
2019-02-26T17:54:04.675Z,9.50
2019-02-26T17:56:34.328Z,9.40
2019-02-26T17:59:03.917Z,9.40
2019-02-26T18:01:34.400Z,9.40
2019-02-26T18:04:22.648Z,9.20
2019-02-26T18:06:46.051Z,9.00
2019-02-26T18:09:13.673Z,8.80
2019-02-26T18:11:44.491Z,8.60
2019-02-26T18:14:12.024Z,8.40
2019-02-26T18:16:41.613Z,8.30
2019-02-26T18:19:12.141Z,8.10
2019-02-26T18:22:27.718Z,7.90
2019-02-26T18:24:55.746Z,7.80
2019-02-26T18:27:23.206Z,7.60
2019-02-26T18:29:50.891Z,7.50
2019-02-26T18:32:18.350Z,7.50
2019-02-26T18:34:45.955Z,7.00
2019-02-26T18:37:13.697Z,7.10
2019-02-26T18:39:42.246Z,7.10
2019-02-26T18:42:12.799Z,7.00
2019-02-26T18:44:40.901Z,7.00
2019-02-26T18:47:08.349Z,7.00
2019-02-26T18:49:35.843Z,7.00
2019-02-26T18:52:03.373Z,7.00
2019-02-26T18:54:31.077Z,7.00
2019-02-26T18:56:58.742Z,7.00
2019-02-26T18:59:26.572Z,6.90
2019-02-26T19:01:54.089Z,6.80
2019-02-26T19:04:21.574Z,6.70
2019-02-26T19:06:49.007Z,6.60
2019-02-26T19:09:17.270Z,6.50
2019-02-26T19:11:44.913Z,6.40
2019-02-26T19:14:13.387Z,6.40
2019-02-26T19:16:40.836Z,6.30
2019-02-26T19:19:09.097Z,6.20
2019-02-26T19:21:37.322Z,6.10
2019-02-26T19:24:05.549Z,6.10
2019-02-26T19:26:36.127Z,6.00
2019-02-26T19:29:05.507Z,6.00
2019-02-26T19:31:35.197Z,5.90
2019-02-26T19:34:05.935Z,5.80
2019-02-26T19:36:33.870Z,5.70
2019-02-26T19:39:02.070Z,5.70
2019-02-26T19:41:31.506Z,5.80
2019-02-26T19:44:00.124Z,5.50
2019-02-26T19:46:28.146Z,5.40
2019-02-26T19:48:55.603Z,5.30
2019-02-26T19:51:25.474Z,5.10
2019-02-26T19:53:54.301Z,5.10
2019-02-26T19:56:23.592Z,5.00
2019-02-26T19:58:53.144Z,4.90
2019-02-26T20:01:25.440Z,4.90
2019-02-26T20:03:51.833Z,4.80
2019-02-26T20:06:23.323Z,4.80
2019-02-26T20:08:51.110Z,4.70
2019-02-26T20:11:22.406Z,4.70
2019-02-26T20:13:50.593Z,4.60
2019-02-26T20:16:19.080Z,4.50
2019-02-26T20:18:46.685Z,4.40
2019-02-26T20:21:16.845Z,4.30
2019-02-26T20:23:46.398Z,4.30
2019-02-26T20:26:16.465Z,4.20
2019-02-26T20:28:43.455Z,4.00
2019-02-26T20:31:12.824Z,4.10
2019-02-26T20:33:40.189Z,4.00
2019-02-26T20:36:07.546Z,3.90
2019-02-26T20:38:35.337Z,3.80
2019-02-26T20:41:02.856Z,3.80
2019-02-26T20:43:30.728Z,3.60
2019-02-26T20:45:59.718Z,3.60
2019-02-26T20:48:27.233Z,3.50
2019-02-26T20:50:56.541Z,3.40
2019-02-26T20:53:24.477Z,3.30
2019-02-26T20:56:48.246Z,3.30
2019-02-26T20:59:17.839Z,3.30
2019-02-26T21:01:45.085Z,3.20
2019-02-26T21:04:13.732Z,3.10
2019-02-26T21:06:41.552Z,3.10
2019-02-26T21:09:11.166Z,3.10
2019-02-26T21:11:41.419Z,3.00
2019-02-26T21:14:09.208Z,3.00
2019-02-26T21:16:37.094Z,2.90
2019-02-26T21:19:06.434Z,2.80
2019-02-26T21:21:35.789Z,2.70
2019-02-26T21:24:03.692Z,2.60
2019-02-26T21:26:31.867Z,2.50
2019-02-26T21:28:59.594Z,2.50
2019-02-26T21:31:27.149Z,2.40
2019-02-26T21:33:54.816Z,2.40
2019-02-26T21:37:12.131Z,2.30
2019-02-26T21:39:38.808Z,2.30
2019-02-26T21:42:06.214Z,2.20
2019-02-26T21:44:33.824Z,2.10
2019-02-26T21:47:01.349Z,2.10
2019-02-26T21:49:29.220Z,2.10
2019-02-26T21:51:57.893Z,2.00
2019-02-26T21:58:09.012Z,2.00
2019-02-26T22:00:39.140Z,2.00
2019-02-26T22:03:07.189Z,2.00
2019-02-26T22:05:37.455Z,1.90
2019-02-26T22:08:04.380Z,1.90
2019-02-26T22:10:31.978Z,2.00
2019-02-26T22:12:59.450Z,2.10
2019-02-26T22:15:27.049Z,2.10
2019-02-26T22:17:55.705Z,2.10
2019-02-26T22:20:35.801Z,2.20
2019-02-26T22:22:57.868Z,2.10
2019-02-26T22:25:25.622Z,2.10
2019-02-26T22:27:53.091Z,2.10
2019-02-26T22:30:22.040Z,2.10
2019-02-26T22:32:50.010Z,2.10
2019-02-26T22:35:17.389Z,2.10
2019-02-26T22:37:45.749Z,2.20
2019-02-26T22:40:13.517Z,2.20
2019-02-26T22:42:41.885Z,2.20
2019-02-26T22:45:10.016Z,2.30
2019-02-26T22:47:40.407Z,2.30
2019-02-26T22:50:09.819Z,2.40
2019-02-26T22:52:37.329Z,2.50
2019-02-26T22:55:06.126Z,2.60
2019-02-26T22:57:33.778Z,2.80
2019-02-26T23:00:01.757Z,2.90
2019-02-26T23:02:31.425Z,3.00
2019-02-26T23:04:58.834Z,3.00
2019-02-26T23:07:26.404Z,3.10
2019-02-26T23:09:54.000Z,3.10
2019-02-26T23:12:22.802Z,3.10
2019-02-26T23:14:50.418Z,3.10
2019-02-26T23:17:18.624Z,3.00
2019-02-26T23:19:46.407Z,2.90
2019-02-26T23:22:14.072Z,2.80
2019-02-26T23:24:41.753Z,2.70
2019-02-26T23:27:09.558Z,2.60
2019-02-26T23:29:42.451Z,2.50
2019-02-26T23:32:10.112Z,2.40
2019-02-26T23:34:37.733Z,2.30
2019-02-26T23:37:06.043Z,2.20
2019-02-26T23:39:33.602Z,2.20
2019-02-26T23:42:05.854Z,2.20
2019-02-26T23:44:32.747Z,2.10
2019-02-26T23:47:02.052Z,2.00
2019-02-26T23:49:29.791Z,1.90
2019-02-26T23:51:57.160Z,1.90
2019-02-26T23:54:24.589Z,1.90
2019-02-26T23:56:53.958Z,1.80
2019-02-26T23:59:21.442Z,1.80
